N1SC KSGF-KMEM
Flight info
| Callsign | N1SC |
|---|---|
| Flight time | 0h 39m |
| Altitude | 31000 |
| Route | WHOLL BRBBQ3 |
| Aircraft | LJ35/L-VGDW/C |
Departure
| Time | 2026-05-07 23:48 |
|---|---|
| Airport | Springfield Branson National Airport (KSGF) |
Arrival
| Time | 2026-05-08 00:27 |
|---|---|
| Airport | Memphis International Airport (KMEM) |
| Time | Latitude | Longitude | Altitude | Speed | Heading |
|---|---|---|---|---|---|
| 2026-05-07 23:19 | 37.24934 | -93.37947 | 1264 ft | 0 kts | 291° |
| 2026-05-07 23:44 | 37.24929 | -93.37996 | 1264 ft | 10 kts | 249° |
| 2026-05-07 23:44 | 37.24962 | -93.38072 | 1264 ft | 11 kts | 9° |
| 2026-05-07 23:44 | 37.25051 | -93.38028 | 1264 ft | 16 kts | 21° |
| 2026-05-07 23:45 | 37.25169 | -93.37973 | 1264 ft | 20 kts | 21° |
| 2026-05-07 23:45 | 37.25275 | -93.37920 | 1263 ft | 10 kts | 7° |
| 2026-05-07 23:45 | 37.25305 | -93.37940 | 1263 ft | 0 kts | 307° |
| 2026-05-07 23:46 | 37.25317 | -93.37968 | 1262 ft | 10 kts | 294° |
| 2026-05-07 23:47 | 37.25339 | -93.38037 | 1261 ft | 5 kts | 227° |
| 2026-05-07 23:47 | 37.25324 | -93.38047 | 1262 ft | 0 kts | 199° |
| 2026-05-07 23:47 | 37.25143 | -93.38137 | 1266 ft | 76 kts | 200° |
| 2026-05-07 23:47 | 37.24330 | -93.38542 | 1357 ft | 166 kts | 207° |
| 2026-05-07 23:48 | 37.23227 | -93.39185 | 2091 ft | 179 kts | 208° |
| 2026-05-07 23:48 | 37.22079 | -93.39887 | 2683 ft | 185 kts | 206° |
| 2026-05-07 23:48 | 37.20855 | -93.40522 | 3217 ft | 198 kts | 203° |
| 2026-05-07 23:48 | 37.19446 | -93.40910 | 3580 ft | 218 kts | 183° |
| 2026-05-07 23:49 | 37.17937 | -93.40499 | 4142 ft | 226 kts | 156° |
| 2026-05-07 23:49 | 37.16811 | -93.39222 | 5000 ft | 221 kts | 126° |
| 2026-05-07 23:49 | 37.15994 | -93.37519 | 5441 ft | 244 kts | 123° |
| 2026-05-07 23:49 | 37.15062 | -93.35599 | 6019 ft | 265 kts | 123° |
| 2026-05-07 23:50 | 37.14149 | -93.33652 | 7288 ft | 254 kts | 122° |
| 2026-05-07 23:50 | 37.13216 | -93.31710 | 7999 ft | 273 kts | 122° |
| 2026-05-07 23:50 | 37.12125 | -93.29606 | 8309 ft | 301 kts | 124° |
| 2026-05-07 23:50 | 37.10930 | -93.27391 | 9098 ft | 308 kts | 123° |
| 2026-05-07 23:51 | 37.09812 | -93.25016 | 9639 ft | 325 kts | 117° |
| 2026-05-07 23:51 | 37.08750 | -93.22446 | 10181 ft | 338 kts | 117° |
| 2026-05-07 23:51 | 37.07624 | -93.19788 | 10707 ft | 350 kts | 118° |
| 2026-05-07 23:51 | 37.06431 | -93.17076 | 11235 ft | 360 kts | 119° |
| 2026-05-07 23:52 | 37.05185 | -93.14308 | 11768 ft | 369 kts | 120° |
| 2026-05-07 23:52 | 37.03914 | -93.11520 | 12301 ft | 376 kts | 120° |
| 2026-05-07 23:52 | 37.02603 | -93.08658 | 12941 ft | 378 kts | 121° |
| 2026-05-07 23:52 | 37.01297 | -93.05813 | 14226 ft | 375 kts | 121° |
| 2026-05-07 23:53 | 36.99995 | -93.02978 | 15827 ft | 379 kts | 121° |
| 2026-05-07 23:53 | 36.98765 | -93.00301 | 17234 ft | 383 kts | 121° |
| 2026-05-07 23:53 | 36.97365 | -92.97259 | 18773 ft | 390 kts | 121° |
| 2026-05-07 23:53 | 36.95997 | -92.94291 | 20025 ft | 397 kts | 122° |
| 2026-05-07 23:54 | 36.94605 | -92.91274 | 21271 ft | 403 kts | 123° |
| 2026-05-07 23:54 | 36.93217 | -92.88269 | 22600 ft | 406 kts | 124° |
| 2026-05-07 23:54 | 36.91802 | -92.85207 | 23916 ft | 407 kts | 124° |
| 2026-05-07 23:54 | 36.90369 | -92.82107 | 25094 ft | 407 kts | 125° |
| 2026-05-07 23:55 | 36.88933 | -92.79052 | 25865 ft | 422 kts | 126° |
| 2026-05-07 23:55 | 36.87403 | -92.75825 | 26380 ft | 442 kts | 126° |
| 2026-05-07 23:55 | 36.85750 | -92.72443 | 26573 ft | 468 kts | 128° |
| 2026-05-07 23:55 | 36.83972 | -92.68912 | 26855 ft | 491 kts | 126° |
| 2026-05-07 23:56 | 36.82231 | -92.65146 | 27224 ft | 509 kts | 124° |
| 2026-05-07 23:56 | 36.80475 | -92.61235 | 27596 ft | 523 kts | 124° |
| 2026-05-07 23:56 | 36.78682 | -92.57241 | 28005 ft | 533 kts | 124° |
| 2026-05-07 23:56 | 36.76843 | -92.53183 | 28440 ft | 540 kts | 124° |
| 2026-05-07 23:57 | 36.74980 | -92.49112 | 29197 ft | 538 kts | 124° |
| 2026-05-07 23:57 | 36.73124 | -92.45083 | 30010 ft | 536 kts | 125° |
| 2026-05-07 23:57 | 36.71261 | -92.41062 | 30614 ft | 535 kts | 127° |
| 2026-05-07 23:57 | 36.69379 | -92.37031 | 30921 ft | 545 kts | 127° |
| 2026-05-07 23:58 | 36.67460 | -92.32957 | 30980 ft | 556 kts | 127° |
| 2026-05-07 23:58 | 36.65507 | -92.28807 | 31036 ft | 551 kts | 127° |
| 2026-05-07 23:58 | 36.61636 | -92.20578 | 31036 ft | 548 kts | 128° |
| 2026-05-07 23:59 | 36.57789 | -92.12431 | 31039 ft | 545 kts | 128° |
| 2026-05-07 23:59 | 36.53955 | -92.04333 | 31036 ft | 542 kts | 128° |
| 2026-05-08 00:00 | 36.50128 | -91.96267 | 31040 ft | 540 kts | 128° |
| 2026-05-08 00:00 | 36.46299 | -91.88211 | 31022 ft | 541 kts | 129° |
| 2026-05-08 00:01 | 36.42470 | -91.80188 | 31041 ft | 545 kts | 129° |
| 2026-05-08 00:01 | 36.38602 | -91.72095 | 31040 ft | 546 kts | 129° |
| 2026-05-08 00:02 | 36.34713 | -91.63973 | 31055 ft | 546 kts | 129° |
| 2026-05-08 00:02 | 36.30821 | -91.55866 | 31050 ft | 551 kts | 129° |
| 2026-05-08 00:03 | 36.27531 | -91.49024 | 31054 ft | 560 kts | 129° |
| 2026-05-08 00:03 | 36.23520 | -91.40696 | 31013 ft | 565 kts | 129° |
| 2026-05-08 00:04 | 36.19107 | -91.32753 | 31027 ft | 549 kts | 142° |
| 2026-05-08 00:04 | 36.16411 | -91.29486 | 31030 ft | 535 kts | 150° |
| 2026-05-08 00:04 | 36.13459 | -91.26765 | 31029 ft | 521 kts | 159° |
| 2026-05-08 00:05 | 36.10333 | -91.24739 | 31257 ft | 494 kts | 170° |
| 2026-05-08 00:05 | 36.07270 | -91.22991 | 31632 ft | 488 kts | 168° |
| 2026-05-08 00:05 | 36.04264 | -91.21132 | 31062 ft | 480 kts | 167° |
| 2026-05-08 00:05 | 36.01300 | -91.19282 | 30437 ft | 475 kts | 167° |
| 2026-05-08 00:06 | 35.98354 | -91.17465 | 29754 ft | 470 kts | 167° |
| 2026-05-08 00:06 | 35.95435 | -91.15686 | 29047 ft | 465 kts | 167° |
| 2026-05-08 00:06 | 35.92539 | -91.13934 | 28374 ft | 461 kts | 166° |
| 2026-05-08 00:06 | 35.89665 | -91.12201 | 27723 ft | 457 kts | 166° |
| 2026-05-08 00:07 | 35.86783 | -91.10476 | 27089 ft | 466 kts | 165° |
| 2026-05-08 00:07 | 35.83849 | -91.08728 | 26501 ft | 470 kts | 165° |
| 2026-05-08 00:07 | 35.80901 | -91.06959 | 25927 ft | 469 kts | 164° |
| 2026-05-08 00:07 | 35.77998 | -91.05212 | 25373 ft | 460 kts | 163° |
| 2026-05-08 00:08 | 35.75142 | -91.03496 | 24823 ft | 453 kts | 163° |
| 2026-05-08 00:08 | 35.72327 | -91.01812 | 24262 ft | 446 kts | 163° |
| 2026-05-08 00:08 | 35.69545 | -91.00153 | 23748 ft | 441 kts | 162° |
| 2026-05-08 00:08 | 35.66792 | -90.98514 | 23150 ft | 437 kts | 162° |
| 2026-05-08 00:09 | 35.64106 | -90.96916 | 22568 ft | 433 kts | 162° |
| 2026-05-08 00:09 | 35.61404 | -90.95311 | 21983 ft | 430 kts | 162° |
| 2026-05-08 00:09 | 35.58718 | -90.93714 | 21422 ft | 427 kts | 162° |
| 2026-05-08 00:09 | 35.56074 | -90.92141 | 21304 ft | 414 kts | 162° |
| 2026-05-08 00:10 | 35.53549 | -90.90574 | 21318 ft | 405 kts | 158° |
| 2026-05-08 00:10 | 35.51240 | -90.88503 | 21319 ft | 418 kts | 144° |
| 2026-05-08 00:10 | 35.49294 | -90.85779 | 21278 ft | 431 kts | 129° |
| 2026-05-08 00:10 | 35.47886 | -90.82465 | 20997 ft | 442 kts | 115° |
| 2026-05-08 00:11 | 35.46683 | -90.79043 | 20717 ft | 433 kts | 118° |
| 2026-05-08 00:11 | 35.45403 | -90.75725 | 20410 ft | 427 kts | 119° |
| 2026-05-08 00:11 | 35.44131 | -90.72454 | 19991 ft | 423 kts | 118° |
| 2026-05-08 00:11 | 35.42883 | -90.69216 | 19452 ft | 417 kts | 118° |
| 2026-05-08 00:12 | 35.41647 | -90.65989 | 18795 ft | 420 kts | 118° |
| 2026-05-08 00:12 | 35.40398 | -90.62738 | 18036 ft | 423 kts | 118° |
| 2026-05-08 00:12 | 35.39144 | -90.59472 | 17224 ft | 422 kts | 117° |
| 2026-05-08 00:12 | 35.37905 | -90.56244 | 16455 ft | 415 kts | 117° |
| 2026-05-08 00:13 | 35.36691 | -90.53076 | 15713 ft | 403 kts | 117° |
| 2026-05-08 00:13 | 35.35535 | -90.50072 | 15006 ft | 388 kts | 118° |
| 2026-05-08 00:13 | 35.34229 | -90.47250 | 14297 ft | 374 kts | 126° |
| 2026-05-08 00:13 | 35.32683 | -90.44778 | 13563 ft | 360 kts | 135° |
| 2026-05-08 00:14 | 35.31087 | -90.42460 | 12818 ft | 351 kts | 133° |
| 2026-05-08 00:14 | 35.29565 | -90.40160 | 12095 ft | 343 kts | 132° |
| 2026-05-08 00:14 | 35.28077 | -90.37905 | 11403 ft | 336 kts | 131° |
| 2026-05-08 00:14 | 35.26618 | -90.35698 | 10730 ft | 330 kts | 131° |
| 2026-05-08 00:15 | 35.25183 | -90.33538 | 10179 ft | 321 kts | 131° |
| 2026-05-08 00:15 | 35.23808 | -90.31472 | 10090 ft | 308 kts | 131° |
| 2026-05-08 00:15 | 35.22456 | -90.29448 | 10056 ft | 309 kts | 131° |
| 2026-05-08 00:15 | 35.21079 | -90.27391 | 10045 ft | 317 kts | 131° |
| 2026-05-08 00:16 | 35.19665 | -90.25278 | 10045 ft | 323 kts | 131° |
| 2026-05-08 00:16 | 35.18228 | -90.23137 | 10046 ft | 326 kts | 131° |
| 2026-05-08 00:16 | 35.16805 | -90.21015 | 10047 ft | 328 kts | 131° |
| 2026-05-08 00:16 | 35.15351 | -90.18851 | 10042 ft | 329 kts | 131° |
| 2026-05-08 00:17 | 35.13902 | -90.16693 | 10040 ft | 328 kts | 131° |
| 2026-05-08 00:17 | 35.12452 | -90.14548 | 10039 ft | 326 kts | 133° |
| 2026-05-08 00:17 | 35.10836 | -90.12777 | 10030 ft | 297 kts | 149° |
| 2026-05-08 00:17 | 35.09095 | -90.11664 | 10020 ft | 268 kts | 164° |
| 2026-05-08 00:18 | 35.07363 | -90.11067 | 9759 ft | 260 kts | 175° |
| 2026-05-08 00:18 | 35.05535 | -90.11002 | 9251 ft | 266 kts | 192° |
| 2026-05-08 00:18 | 35.03693 | -90.11133 | 9008 ft | 260 kts | 185° |
| 2026-05-08 00:18 | 35.01932 | -90.11116 | 8908 ft | 250 kts | 185° |
| 2026-05-08 00:19 | 35.00176 | -90.11045 | 8461 ft | 256 kts | 182° |
| 2026-05-08 00:19 | 34.98399 | -90.10949 | 7974 ft | 260 kts | 181° |
| 2026-05-08 00:19 | 34.96591 | -90.10857 | 7497 ft | 260 kts | 181° |
| 2026-05-08 00:19 | 34.94791 | -90.10777 | 7028 ft | 257 kts | 181° |
| 2026-05-08 00:20 | 34.93016 | -90.10613 | 6565 ft | 256 kts | 171° |
| 2026-05-08 00:20 | 34.91264 | -90.10348 | 6074 ft | 252 kts | 182° |
| 2026-05-08 00:20 | 34.89524 | -90.10420 | 5608 ft | 249 kts | 184° |
| 2026-05-08 00:20 | 34.87803 | -90.10566 | 5159 ft | 246 kts | 185° |
| 2026-05-08 00:21 | 34.86108 | -90.10713 | 4700 ft | 243 kts | 179° |
| 2026-05-08 00:21 | 34.84532 | -90.10150 | 4184 ft | 241 kts | 147° |
| 2026-05-08 00:21 | 34.83427 | -90.08680 | 3692 ft | 237 kts | 114° |
| 2026-05-08 00:21 | 34.83060 | -90.06756 | 3225 ft | 232 kts | 93° |
| 2026-05-08 00:22 | 34.82974 | -90.04808 | 2774 ft | 230 kts | 90° |
| 2026-05-08 00:22 | 34.82947 | -90.02866 | 2329 ft | 229 kts | 89° |
| 2026-05-08 00:22 | 34.82945 | -90.00931 | 1880 ft | 227 kts | 88° |
| 2026-05-08 00:22 | 34.82948 | -89.99024 | 1633 ft | 218 kts | 88° |
| 2026-05-08 00:23 | 34.82949 | -89.97233 | 1656 ft | 207 kts | 84° |
| 2026-05-08 00:23 | 34.83587 | -89.95808 | 1779 ft | 193 kts | 35° |
| 2026-05-08 00:23 | 34.84824 | -89.95457 | 1785 ft | 187 kts | 346° |
| 2026-05-08 00:23 | 34.86044 | -89.96026 | 1672 ft | 189 kts | 336° |
| 2026-05-08 00:24 | 34.87218 | -89.96600 | 1677 ft | 182 kts | 343° |
| 2026-05-08 00:24 | 34.88461 | -89.96904 | 1641 ft | 183 kts | 351° |
| 2026-05-08 00:24 | 34.89731 | -89.97133 | 1566 ft | 186 kts | 353° |
| 2026-05-08 00:24 | 34.91036 | -89.97261 | 1481 ft | 190 kts | 2° |
| 2026-05-08 00:25 | 34.92337 | -89.97095 | 1504 ft | 188 kts | 6° |
| 2026-05-08 00:25 | 34.93670 | -89.96919 | 1334 ft | 196 kts | 4° |
| 2026-05-08 00:25 | 34.95039 | -89.96893 | 1267 ft | 197 kts | 357° |
| 2026-05-08 00:25 | 34.96407 | -89.96994 | 1174 ft | 198 kts | 355° |
| 2026-05-08 00:26 | 34.97779 | -89.97133 | 1082 ft | 194 kts | 355° |
| 2026-05-08 00:26 | 34.99097 | -89.97200 | 893 ft | 184 kts | 358° |
| 2026-05-08 00:26 | 35.00312 | -89.97222 | 697 ft | 166 kts | 358° |
| 2026-05-08 00:26 | 35.01423 | -89.97228 | 518 ft | 155 kts | 358° |
| 2026-05-08 00:27 | 35.02484 | -89.97244 | 309 ft | 150 kts | 356° |
| 2026-05-08 00:27 | 35.03458 | -89.97267 | 303 ft | 129 kts | 359° |
| 2026-05-08 00:27 | 35.04281 | -89.97284 | 310 ft | 91 kts | 359° |
| 2026-05-08 00:27 | 35.04589 | -89.97287 | 315 ft | 35 kts | 358° |
| 2026-05-08 00:28 | 35.04742 | -89.97260 | 317 ft | 1 kts | 78° |
| 2026-05-08 00:28 | 35.04738 | -89.97145 | 316 ft | 21 kts | 91° |
| 2026-05-08 00:28 | 35.04738 | -89.97113 | 315 ft | 0 kts | 87° |
| 2026-05-08 00:28 | 35.04762 | -89.97072 | 315 ft | 14 kts | 27° |
| 2026-05-08 00:29 | 35.04866 | -89.97074 | 317 ft | 16 kts | 3° |
| 2026-05-08 00:29 | 35.04978 | -89.97061 | 316 ft | 13 kts | 9° |
| 2026-05-08 00:29 | 35.05109 | -89.97048 | 310 ft | 28 kts | 8° |
| 2026-05-08 00:29 | 35.05379 | -89.96995 | 298 ft | 48 kts | 9° |
| 2026-05-08 00:30 | 35.05652 | -89.96931 | 299 ft | 27 kts | 33° |
| 2026-05-08 00:30 | 35.05644 | -89.96727 | 300 ft | 29 kts | 100° |
| 2026-05-08 00:30 | 35.05572 | -89.96695 | 296 ft | 0 kts | 187° |